Time;durP1;ratioP1;P1;durP2;ratioP2;P2;SDS_P1;SDS_P2;PMS_P1;PMS_P2;Temp;Humidity;BMP_temperature;BMP_pressure;BME280_temperature;BME280_humidity;BME280_pressure;Samples;Min_cycle;Max_cycle;Signal;HPM_P1;HPM_P2
2021/05/01 00:00:45;;;;;;;2.07;1.03;;;;;;;;;;5013302;28;20490;-73
2021/05/01 00:03:11;;;;;;;1.00;0.80;;;;;;;;;;5011903;28;20420;-73
2021/05/01 00:05:37;;;;;;;1.60;1.23;;;;;;;;;;5013053;28;20432;-73
2021/05/01 00:08:03;;;;;;;1.60;1.50;;;;;;;;;;5011899;28;20536;-75
2021/05/01 00:10:29;;;;;;;4.07;1.67;;;;;;;;;;5012268;28;20510;-74
2021/05/01 00:12:55;;;;;;;1.73;1.10;;;;;;;;;;5013107;28;20945;-74
2021/05/01 00:15:21;;;;;;;2.20;2.00;;;;;;;;;;5012889;28;20966;-75
2021/05/01 00:17:47;;;;;;;1.30;0.73;;;;;;;;;;5013009;28;20454;-74
2021/05/01 00:20:14;;;;;;;2.33;0.97;;;;;;;;;;5011151;28;20849;-75
2021/05/01 00:22:39;;;;;;;1.93;1.03;;;;;;;;;;5011592;28;20405;-74
2021/05/01 00:25:06;;;;;;;1.30;1.10;;;;;;;;;;5012647;28;20496;-73
2021/05/01 00:27:32;;;;;;;1.87;1.00;;;;;;;;;;5012876;28;20393;-74
2021/05/01 00:29:58;;;;;;;1.00;0.70;;;;;;;;;;5010601;28;20802;-74
2021/05/01 00:32:24;;;;;;;3.10;2.83;;;;;;;;;;5011506;28;20543;-73
2021/05/01 00:34:49;;;;;;;2.37;1.90;;;;;;;;;;5012400;28;20408;-72
2021/05/01 00:37:15;;;;;;;1.47;0.83;;;;;;;;;;5012650;28;20463;-73
2021/05/01 00:39:41;;;;;;;1.83;1.47;;;;;;;;;;5011226;28;20520;-72
2021/05/01 00:42:10;;;;;;;2.13;1.27;;;;;;;;;;5013168;28;20408;-72
2021/05/01 00:44:36;;;;;;;1.27;0.80;;;;;;;;;;5012461;28;20427;-73
2021/05/01 00:47:04;;;;;;;3.13;1.00;;;;;;;;;;5022383;28;20412;-77
2021/05/01 00:49:30;;;;;;;1.50;0.83;;;;;;;;;;5025583;28;20496;-79
2021/05/01 00:51:58;;;;;;;3.13;0.90;;;;;;;;;;5011232;28;20496;-79
2021/05/01 00:54:24;;;;;;;6.80;1.10;;;;;;;;;;5011964;28;20415;-79
2021/05/01 00:56:52;;;;;;;1.40;1.30;;;;;;;;;;5013355;28;20465;-75
2021/05/01 00:59:18;;;;;;;1.03;0.93;;;;;;;;;;5026650;28;20412;-77
2021/05/01 01:01:51;;;;;;;5.63;3.03;;;;;;;;;;4993194;28;20485;-74
2021/05/01 01:04:18;;;;;;;2.30;1.23;;;;;;;;;;5000813;28;20383;-77
2021/05/01 01:06:44;;;;;;;4.17;1.00;;;;;;;;;;5018743;28;20424;-74
2021/05/01 01:09:11;;;;;;;2.33;1.20;;;;;;;;;;5017993;28;20452;-75
2021/05/01 01:11:37;;;;;;;5.30;2.17;;;;;;;;;;5000407;28;20416;-84
2021/05/01 01:14:04;;;;;;;1.40;1.30;;;;;;;;;;5021626;28;20958;-80
2021/05/01 01:16:30;;;;;;;2.30;1.67;;;;;;;;;;5023012;28;20494;-79
2021/05/01 01:18:57;;;;;;;1.10;0.90;;;;;;;;;;5029874;28;20396;-80
2021/05/01 01:21:23;;;;;;;1.50;0.90;;;;;;;;;;5027572;28;20525;-80
2021/05/01 01:23:49;;;;;;;1.60;1.20;;;;;;;;;;5025733;28;20405;-79
2021/05/01 01:26:15;;;;;;;2.50;2.00;;;;;;;;;;5026454;28;20409;-81
2021/05/01 01:28:41;;;;;;;2.57;1.60;;;;;;;;;;5026045;28;20405;-81
2021/05/01 01:31:07;;;;;;;1.10;1.00;;;;;;;;;;5018611;28;20472;-73
2021/05/01 01:33:34;;;;;;;1.30;1.20;;;;;;;;;;5014919;28;20387;-74
2021/05/01 01:36:02;;;;;;;1.50;1.17;;;;;;;;;;5015949;28;20459;-75
2021/05/01 01:38:28;;;;;;;1.87;1.40;;;;;;;;;;5019702;28;20471;-73
2021/05/01 01:40:54;;;;;;;2.40;1.70;;;;;;;;;;5020193;28;20426;-74
2021/05/01 01:43:20;;;;;;;1.33;1.10;;;;;;;;;;5020268;28;20416;-74
2021/05/01 01:45:46;;;;;;;1.23;1.13;;;;;;;;;;5019867;28;20870;-74
2021/05/01 01:48:12;;;;;;;1.60;1.00;;;;;;;;;;5019499;28;20424;-72
2021/05/01 01:50:38;;;;;;;2.00;0.80;;;;;;;;;;5036893;28;20480;-72
2021/05/01 01:53:04;;;;;;;0.90;0.70;;;;;;;;;;5036995;28;20389;-74
2021/05/01 01:55:30;;;;;;;1.33;1.10;;;;;;;;;;5036454;28;20459;-73
2021/05/01 01:57:56;;;;;;;3.90;1.97;;;;;;;;;;5035194;28;20447;-72
2021/05/01 02:00:28;;;;;;;1.40;1.03;;;;;;;;;;5017911;28;20440;-74
2021/05/01 02:02:55;;;;;;;1.00;0.87;;;;;;;;;;5011212;28;20401;-73
2021/05/01 02:05:21;;;;;;;2.80;1.27;;;;;;;;;;5011266;28;20432;-72
2021/05/01 02:07:47;;;;;;;1.30;1.20;;;;;;;;;;5011233;28;20454;-72
2021/05/01 02:10:14;;;;;;;2.10;1.43;;;;;;;;;;5010869;28;20410;-74
2021/05/01 02:12:40;;;;;;;2.37;1.47;;;;;;;;;;5009567;28;20419;-73
2021/05/01 02:15:10;;;;;;;1.93;1.50;;;;;;;;;;5009518;28;20455;-73
2021/05/01 02:17:36;;;;;;;1.10;1.00;;;;;;;;;;5009235;28;20778;-72
2021/05/01 02:20:03;;;;;;;1.97;1.20;;;;;;;;;;5009916;28;20844;-73
2021/05/01 02:22:29;;;;;;;1.30;0.90;;;;;;;;;;5010252;28;21072;-76
2021/05/01 02:24:55;;;;;;;2.10;1.63;;;;;;;;;;5014494;28;20427;-75
2021/05/01 02:27:21;;;;;;;1.00;0.90;;;;;;;;;;5011301;28;20875;-77
2021/05/01 02:29:47;;;;;;;1.30;0.83;;;;;;;;;;4993366;28;20501;-74
2021/05/01 02:32:15;;;;;;;1.13;0.90;;;;;;;;;;5011140;28;20408;-75
2021/05/01 02:34:41;;;;;;;2.30;2.17;;;;;;;;;;5011430;28;20455;-73
2021/05/01 02:37:09;;;;;;;2.50;1.83;;;;;;;;;;5010931;28;20468;-75
2021/05/01 02:39:36;;;;;;;0.90;0.70;;;;;;;;;;5010865;28;20452;-76
2021/05/01 02:42:02;;;;;;;2.10;1.27;;;;;;;;;;5011438;28;20462;-75
2021/05/01 02:44:28;;;;;;;1.80;1.63;;;;;;;;;;5010345;28;20416;-77
2021/05/01 02:46:54;;;;;;;3.37;1.03;;;;;;;;;;5011687;28;20937;-78
2021/05/01 02:49:20;;;;;;;2.20;1.20;;;;;;;;;;5011181;28;20420;-77
2021/05/01 02:51:46;;;;;;;3.13;1.30;;;;;;;;;;5011576;28;20424;-77
2021/05/01 02:54:12;;;;;;;1.00;0.60;;;;;;;;;;5015402;28;20408;-76
2021/05/01 02:56:38;;;;;;;0.90;0.77;;;;;;;;;;5014927;28;20430;-78
2021/05/01 02:59:04;;;;;;;1.00;0.90;;;;;;;;;;5029909;28;20420;-77
2021/05/01 03:01:30;;;;;;;1.50;1.30;;;;;;;;;;5019478;28;20428;-77
2021/05/01 03:03:56;;;;;;;1.73;1.63;;;;;;;;;;5013749;28;20427;-76
2021/05/01 03:06:21;;;;;;;1.93;1.50;;;;;;;;;;5014999;28;20422;-77
2021/05/01 03:08:48;;;;;;;3.10;1.40;;;;;;;;;;5013278;28;20415;-76
2021/05/01 03:11:14;;;;;;;5.03;1.00;;;;;;;;;;5009800;28;21008;-77
2021/05/01 03:13:40;;;;;;;1.80;1.27;;;;;;;;;;5012835;28;20480;-74
2021/05/01 03:16:06;;;;;;;2.87;2.67;;;;;;;;;;5017817;28;20447;-79
2021/05/01 03:18:32;;;;;;;2.80;2.60;;;;;;;;;;5016002;28;20514;-77
2021/05/01 03:20:58;;;;;;;1.43;1.33;;;;;;;;;;5013994;28;20456;-73
2021/05/01 03:23:26;;;;;;;3.00;1.10;;;;;;;;;;5013889;28;20416;-76
2021/05/01 03:25:52;;;;;;;2.60;1.33;;;;;;;;;;5013037;28;20424;-74
2021/05/01 03:28:18;;;;;;;1.07;0.90;;;;;;;;;;5014370;28;20488;-76
2021/05/01 03:30:44;;;;;;;2.50;1.47;;;;;;;;;;5013794;28;21041;-75
2021/05/01 03:33:10;;;;;;;0.80;0.67;;;;;;;;;;5013786;28;20390;-76
2021/05/01 03:35:36;;;;;;;1.33;1.07;;;;;;;;;;5013780;28;20452;-75
2021/05/01 03:38:02;;;;;;;1.73;1.03;;;;;;;;;;5012220;28;20427;-74
2021/05/01 03:40:28;;;;;;;1.40;1.00;;;;;;;;;;5001758;28;20447;-74
2021/05/01 03:42:54;;;;;;;1.93;1.83;;;;;;;;;;5013278;28;20416;-75
2021/05/01 03:45:20;;;;;;;1.20;1.07;;;;;;;;;;5015557;28;20403;-82
2021/05/01 03:47:46;;;;;;;1.60;1.50;;;;;;;;;;5013954;28;20433;-74
2021/05/01 03:50:12;;;;;;;6.50;1.93;;;;;;;;;;4996202;28;20425;-76
2021/05/01 03:52:38;;;;;;;1.97;1.67;;;;;;;;;;5004426;28;20474;-78
2021/05/01 03:55:05;;;;;;;1.17;1.07;;;;;;;;;;5014880;28;20889;-76
2021/05/01 03:57:34;;;;;;;2.70;1.20;;;;;;;;;;5016384;28;20442;-77
2021/05/01 04:00:00;;;;;;;1.23;1.13;;;;;;;;;;5026288;28;21001;-77
2021/05/01 04:02:26;;;;;;;3.87;1.90;;;;;;;;;;5004944;28;20399;-79
2021/05/01 04:04:51;;;;;;;2.10;1.50;;;;;;;;;;5011695;28;20470;-79
2021/05/01 04:07:17;;;;;;;2.03;1.03;;;;;;;;;;5003336;28;20405;-76
2021/05/01 04:09:43;;;;;;;0.80;0.70;;;;;;;;;;5004192;28;20449;-79
2021/05/01 04:12:09;;;;;;;5.13;1.67;;;;;;;;;;5016883;28;20504;-77
2021/05/01 04:14:35;;;;;;;2.33;1.43;;;;;;;;;;5015639;28;20581;-76
2021/05/01 04:17:01;;;;;;;1.20;0.87;;;;;;;;;;5012893;28;20478;-77
2021/05/01 04:19:27;;;;;;;1.13;1.03;;;;;;;;;;5012637;28;20410;-74
2021/05/01 04:21:53;;;;;;;1.40;1.30;;;;;;;;;;5013031;28;20385;-74
2021/05/01 04:24:19;;;;;;;1.50;1.23;;;;;;;;;;5013535;28;20462;-74
2021/05/01 04:26:45;;;;;;;1.40;1.10;;;;;;;;;;5014573;28;20560;-73
2021/05/01 04:29:11;;;;;;;3.17;2.30;;;;;;;;;;5029804;28;20461;-72
2021/05/01 04:31:37;;;;;;;2.10;0.80;;;;;;;;;;5014547;28;20424;-73
2021/05/01 04:34:03;;;;;;;4.33;1.67;;;;;;;;;;5012626;28;20399;-73
2021/05/01 04:36:29;;;;;;;4.83;1.37;;;;;;;;;;5016419;28;20428;-75
2021/05/01 04:38:55;;;;;;;1.47;1.37;;;;;;;;;;5012263;28;20420;-72
2021/05/01 04:41:21;;;;;;;1.63;1.40;;;;;;;;;;5011618;28;20511;-75
2021/05/01 04:43:47;;;;;;;2.20;1.17;;;;;;;;;;5004211;28;20397;-74
2021/05/01 04:46:14;;;;;;;1.20;1.10;;;;;;;;;;4991135;28;20422;-73
2021/05/01 04:48:40;;;;;;;1.53;0.67;;;;;;;;;;4996913;28;20490;-74
2021/05/01 04:51:06;;;;;;;1.27;1.17;;;;;;;;;;5004759;28;20434;-72
2021/05/01 04:53:32;;;;;;;1.17;1.00;;;;;;;;;;5003844;28;20418;-73
2021/05/01 04:56:00;;;;;;;1.37;1.10;;;;;;;;;;5001318;28;20482;-74
2021/05/01 04:58:26;;;;;;;2.50;0.97;;;;;;;;;;5015728;28;20438;-73
2021/05/01 05:00:52;;;;;;;1.33;0.70;;;;;;;;;;5030301;28;20426;-74
2021/05/01 05:03:18;;;;;;;1.30;0.97;;;;;;;;;;5013293;28;20584;-74
2021/05/01 05:05:46;;;;;;;0.70;0.50;;;;;;;;;;5010701;28;20470;-75
2021/05/01 05:08:12;;;;;;;1.13;1.00;;;;;;;;;;5012067;28;20822;-76
2021/05/01 05:10:51;;;;;;;1.30;1.20;;;;;;;;;;5008338;28;20432;-77
2021/05/01 05:16:21;;;;;;;2.40;1.07;;;;;;;;;;5003082;28;20459;-75
2021/05/01 05:18:47;;;;;;;1.20;1.10;;;;;;;;;;5012578;28;20430;-74
2021/05/01 05:21:13;;;;;;;1.87;1.13;;;;;;;;;;5011423;28;20483;-75
2021/05/01 05:23:39;;;;;;;3.57;1.43;;;;;;;;;;5013028;28;20420;-77
2021/05/01 05:26:05;;;;;;;1.13;0.87;;;;;;;;;;5008271;28;20430;-76
2021/05/01 05:28:31;;;;;;;1.40;1.23;;;;;;;;;;5005741;28;20975;-76
2021/05/01 05:30:57;;;;;;;3.83;1.33;;;;;;;;;;5010854;28;20457;-78
2021/05/01 05:33:23;;;;;;;2.83;1.53;;;;;;;;;;5015324;28;20487;-79
2021/05/01 05:35:49;;;;;;;1.87;1.47;;;;;;;;;;5001847;28;20526;-80
2021/05/01 05:38:15;;;;;;;1.37;1.00;;;;;;;;;;5004044;28;20456;-79
2021/05/01 05:40:41;;;;;;;0.90;0.73;;;;;;;;;;5022357;28;20422;-80
2021/05/01 05:43:08;;;;;;;2.30;1.30;;;;;;;;;;5037966;28;20423;-79
2021/05/01 05:45:34;;;;;;;1.80;1.70;;;;;;;;;;5037913;28;20407;-78
2021/05/01 05:48:00;;;;;;;2.17;0.90;;;;;;;;;;5037575;28;20406;-78
2021/05/01 05:50:26;;;;;;;4.80;1.50;;;;;;;;;;5035566;28;20437;-77
2021/05/01 05:52:52;;;;;;;2.30;1.00;;;;;;;;;;5026809;28;20418;-79
2021/05/01 05:55:18;;;;;;;1.40;1.20;;;;;;;;;;5010182;28;20462;-78
2021/05/01 05:57:50;;;;;;;1.00;0.90;;;;;;;;;;5006550;28;20402;-76
2021/05/01 06:00:17;;;;;;;4.00;2.50;;;;;;;;;;5014423;28;20444;-78
2021/05/01 06:02:44;;;;;;;1.30;1.13;;;;;;;;;;5010656;28;20398;-78
2021/05/01 06:05:13;;;;;;;0.80;0.67;;;;;;;;;;5010131;28;20845;-77
2021/05/01 06:07:47;;;;;;;1.97;1.60;;;;;;;;;;5011495;28;20932;-75
2021/05/01 06:10:13;;;;;;;1.53;1.10;;;;;;;;;;5016055;28;20435;-82
2021/05/01 06:12:39;;;;;;;3.40;1.17;;;;;;;;;;5022716;28;20410;-83
2021/05/01 06:15:07;;;;;;;1.70;1.60;;;;;;;;;;5025955;28;20402;-79
2021/05/01 06:17:34;;;;;;;1.03;0.87;;;;;;;;;;5020017;28;21127;-85
2021/05/01 06:20:01;;;;;;;2.40;0.83;;;;;;;;;;5025455;28;20444;-82
2021/05/01 06:22:27;;;;;;;1.97;1.77;;;;;;;;;;5030590;28;20399;-83
2021/05/01 06:24:56;;;;;;;3.10;2.90;;;;;;;;;;5030570;28;20488;-85
2021/05/01 06:27:22;;;;;;;1.97;1.30;;;;;;;;;;5031690;28;20426;-78
2021/05/01 06:29:48;;;;;;;1.60;1.17;;;;;;;;;;5032932;28;20478;-80
2021/05/01 06:32:15;;;;;;;3.77;1.13;;;;;;;;;;5033693;28;20412;-76
2021/05/01 06:34:50;;;;;;;2.50;1.53;;;;;;;;;;5013222;28;20482;-75
2021/05/01 06:37:17;;;;;;;2.93;1.53;;;;;;;;;;5016961;28;20501;-78
2021/05/01 06:39:48;;;;;;;1.23;1.00;;;;;;;;;;5014853;28;20439;-75
2021/05/01 06:42:28;;;;;;;5.13;1.87;;;;;;;;;;5013069;28;20407;-77
2021/05/01 06:45:05;;;;;;;1.40;1.10;;;;;;;;;;5008521;28;20411;-77
2021/05/01 06:47:31;;;;;;;3.97;1.50;;;;;;;;;;5014149;28;20400;-76
2021/05/01 06:50:09;;;;;;;2.07;1.20;;;;;;;;;;5012234;28;20494;-76
2021/05/01 06:52:42;;;;;;;1.40;1.20;;;;;;;;;;5012341;28;20395;-77
2021/05/01 06:55:09;;;;;;;1.03;0.90;;;;;;;;;;5017759;28;20408;-78
2021/05/01 06:57:36;;;;;;;1.60;1.20;;;;;;;;;;5015218;28;20521;-77
2021/05/01 07:00:05;;;;;;;1.73;1.17;;;;;;;;;;5022740;28;20485;-78
2021/05/01 07:02:34;;;;;;;1.87;1.73;;;;;;;;;;5012834;28;20414;-75
2021/05/01 07:05:00;;;;;;;2.80;1.73;;;;;;;;;;5014787;28;21009;-75
2021/05/01 07:07:28;;;;;;;3.23;0.80;;;;;;;;;;5013120;28;20408;-75
2021/05/01 07:09:54;;;;;;;2.23;1.80;;;;;;;;;;5013062;28;20443;-76
2021/05/01 07:12:21;;;;;;;5.13;1.23;;;;;;;;;;5014690;28;20404;-74
2021/05/01 07:14:47;;;;;;;5.53;3.27;;;;;;;;;;5014905;28;20436;-71
2021/05/01 07:17:14;;;;;;;5.83;1.07;;;;;;;;;;5013470;28;20876;-74
2021/05/01 07:19:40;;;;;;;1.80;1.13;;;;;;;;;;5014278;28;20803;-76
2021/05/01 07:22:10;;;;;;;1.53;1.00;;;;;;;;;;5016008;28;20419;-76
2021/05/01 07:24:36;;;;;;;3.33;2.37;;;;;;;;;;5013204;28;20409;-76
2021/05/01 07:27:03;;;;;;;1.87;1.67;;;;;;;;;;5010253;28;20772;-76
2021/05/01 07:29:33;;;;;;;1.77;1.10;;;;;;;;;;5011632;28;20440;-75
2021/05/01 07:31:59;;;;;;;2.27;1.03;;;;;;;;;;5012004;28;20778;-74
2021/05/01 07:34:28;;;;;;;1.77;1.10;;;;;;;;;;5011711;28;20475;-73
2021/05/01 07:36:56;;;;;;;1.07;0.97;;;;;;;;;;5011038;28;21043;-73
2021/05/01 07:39:24;;;;;;;1.70;1.60;;;;;;;;;;5006569;28;20443;-73
2021/05/01 07:41:56;;;;;;;2.20;1.90;;;;;;;;;;5005945;28;20401;-73
2021/05/01 07:44:27;;;;;;;1.40;1.00;;;;;;;;;;5009842;28;20421;-73
2021/05/01 07:46:53;;;;;;;1.80;1.40;;;;;;;;;;5000746;28;20421;-73
2021/05/01 07:49:19;;;;;;;1.43;1.33;;;;;;;;;;5005765;28;20480;-72
2021/05/01 07:51:46;;;;;;;1.37;1.07;;;;;;;;;;5009395;28;20420;-73
2021/05/01 07:54:13;;;;;;;1.80;1.30;;;;;;;;;;5012297;28;20443;-74
2021/05/01 07:56:40;;;;;;;2.70;1.17;;;;;;;;;;5009710;28;20457;-73
2021/05/01 07:59:10;;;;;;;1.17;1.07;;;;;;;;;;5014769;28;20444;-72
2021/05/01 08:01:36;;;;;;;3.13;1.70;;;;;;;;;;5012316;28;20424;-72
2021/05/01 08:04:04;;;;;;;1.83;1.13;;;;;;;;;;5011410;28;20496;-74
2021/05/01 08:06:30;;;;;;;2.13;1.67;;;;;;;;;;5008393;28;20947;-73
2021/05/01 08:08:56;;;;;;;5.90;2.63;;;;;;;;;;5004476;28;21030;-74
2021/05/01 08:11:23;;;;;;;2.00;1.53;;;;;;;;;;5003175;28;20430;-74
2021/05/01 08:13:49;;;;;;;1.83;1.73;;;;;;;;;;4996649;28;20426;-74
2021/05/01 08:16:15;;;;;;;5.57;1.57;;;;;;;;;;5004278;28;20431;-75
2021/05/01 08:18:42;;;;;;;2.03;1.77;;;;;;;;;;5005077;28;20454;-74
2021/05/01 08:21:08;;;;;;;1.90;1.60;;;;;;;;;;5006521;28;20490;-76
2021/05/01 08:23:34;;;;;;;1.60;1.00;;;;;;;;;;5018340;23;20529;-69
2021/05/01 08:26:01;;;;;;;1.50;0.90;;;;;;;;;;5000424;28;20428;-71
2021/05/01 08:28:27;;;;;;;2.33;1.33;;;;;;;;;;5008854;28;20464;-71
2021/05/01 08:30:53;;;;;;;1.57;1.40;;;;;;;;;;5002895;28;20512;-70
2021/05/01 08:33:19;;;;;;;2.93;1.70;;;;;;;;;;4995036;28;20445;-72
2021/05/01 08:35:45;;;;;;;2.37;1.33;;;;;;;;;;4996559;28;20544;-72
2021/05/01 08:38:11;;;;;;;1.53;1.43;;;;;;;;;;5006106;28;20512;-72
2021/05/01 08:40:37;;;;;;;1.60;0.90;;;;;;;;;;5001927;28;20885;-73
2021/05/01 08:43:03;;;;;;;2.27;1.70;;;;;;;;;;5008162;28;21058;-72
2021/05/01 08:45:31;;;;;;;2.00;1.80;;;;;;;;;;5005344;28;20419;-73
2021/05/01 08:47:59;;;;;;;1.27;0.80;;;;;;;;;;5000929;28;20453;-72
2021/05/01 08:50:31;;;;;;;2.40;1.40;;;;;;;;;;5006421;28;20426;-71
2021/05/01 08:53:02;;;;;;;2.40;1.63;;;;;;;;;;5001435;28;20416;-73
2021/05/01 08:55:30;;;;;;;3.43;2.50;;;;;;;;;;5001625;28;21120;-71
2021/05/01 08:57:56;;;;;;;1.60;1.50;;;;;;;;;;5003901;28;20416;-72
2021/05/01 09:00:22;;;;;;;2.20;1.93;;;;;;;;;;5008944;28;20424;-72
2021/05/01 09:02:49;;;;;;;4.07;3.67;;;;;;;;;;5003805;28;20520;-71
2021/05/01 09:05:15;;;;;;;4.03;1.80;;;;;;;;;;4998747;28;20388;-71
2021/05/01 09:07:44;;;;;;;1.73;1.43;;;;;;;;;;4993985;28;20959;-73
2021/05/01 09:10:10;;;;;;;5.13;1.60;;;;;;;;;;5010063;28;20422;-73
2021/05/01 09:12:39;;;;;;;5.00;1.67;;;;;;;;;;5008760;28;20508;-71
2021/05/01 09:15:07;;;;;;;1.93;1.20;;;;;;;;;;5010138;28;20409;-72
2021/05/01 09:17:33;;;;;;;1.00;0.90;;;;;;;;;;5006974;28;20471;-72
2021/05/01 09:20:05;;;;;;;3.23;1.90;;;;;;;;;;5004296;28;20414;-71
2021/05/01 09:22:31;;;;;;;2.90;1.90;;;;;;;;;;5007551;28;20427;-72
2021/05/01 09:25:07;;;;;;;3.83;1.60;;;;;;;;;;5009297;28;20414;-73
2021/05/01 09:27:34;;;;;;;3.60;1.67;;;;;;;;;;5000092;28;20448;-70
2021/05/01 09:30:14;;;;;;;4.80;2.77;;;;;;;;;;5008166;28;20409;-73
2021/05/01 09:32:40;;;;;;;1.83;1.20;;;;;;;;;;5008567;28;20509;-72
2021/05/01 09:35:06;;;;;;;2.10;1.13;;;;;;;;;;5008308;28;20466;-70
2021/05/01 09:37:32;;;;;;;1.53;1.43;;;;;;;;;;4991489;28;20582;-70
2021/05/01 09:39:59;;;;;;;1.57;1.30;;;;;;;;;;5008080;28;21021;-71
2021/05/01 09:42:29;;;;;;;1.50;1.40;;;;;;;;;;5009023;28;20426;-73
2021/05/01 09:45:18;;;;;;;1.70;1.17;;;;;;;;;;5005933;28;20392;-72
2021/05/01 09:47:51;;;;;;;2.23;1.60;;;;;;;;;;5000215;28;20388;-68
2021/05/01 09:50:18;;;;;;;1.93;1.20;;;;;;;;;;5006806;28;20404;-70
2021/05/01 09:53:11;;;;;;;2.93;1.73;;;;;;;;;;5008303;28;20403;-71
2021/05/01 09:55:54;;;;;;;1.80;1.67;;;;;;;;;;5010057;28;20452;-73
2021/05/01 09:58:27;;;;;;;1.80;1.43;;;;;;;;;;5019708;28;20386;-71
2021/05/01 10:00:55;;;;;;;2.40;1.70;;;;;;;;;;5030275;28;20377;-72
2021/05/01 10:03:22;;;;;;;2.40;1.80;;;;;;;;;;5029613;28;20457;-70
2021/05/01 10:05:48;;;;;;;4.07;2.30;;;;;;;;;;5010838;28;20962;-70
2021/05/01 10:08:15;;;;;;;7.30;2.63;;;;;;;;;;5010852;28;20813;-71
2021/05/01 10:10:42;;;;;;;5.57;3.03;;;;;;;;;;5009102;28;20462;-71
2021/05/01 10:13:08;;;;;;;3.43;3.10;;;;;;;;;;5010684;28;20440;-71
2021/05/01 10:15:34;;;;;;;1.40;1.30;;;;;;;;;;5011294;28;20399;-71
2021/05/01 10:18:10;;;;;;;5.60;2.30;;;;;;;;;;5014457;28;20395;-73
2021/05/01 10:20:47;;;;;;;1.40;1.30;;;;;;;;;;5004082;28;20459;-72
2021/05/01 10:23:15;;;;;;;3.30;2.23;;;;;;;;;;5001389;28;20460;-72
2021/05/01 10:25:41;;;;;;;2.37;2.17;;;;;;;;;;5011592;28;20412;-71
2021/05/01 10:28:14;;;;;;;2.40;2.20;;;;;;;;;;5012101;28;20433;-71
2021/05/01 10:30:49;;;;;;;2.10;1.67;;;;;;;;;;5012709;28;20401;-72
2021/05/01 10:33:37;;;;;;;5.70;1.30;;;;;;;;;;5021786;28;20415;-70
2021/05/01 10:36:20;;;;;;;7.13;3.27;;;;;;;;;;5021127;28;20427;-71
2021/05/01 10:38:47;;;;;;;2.60;2.40;;;;;;;;;;5016338;28;20429;-71
2021/05/01 10:41:18;;;;;;;5.10;1.67;;;;;;;;;;5023921;28;20799;-70
2021/05/01 10:43:51;;;;;;;1.40;1.30;;;;;;;;;;5022583;28;20437;-72
2021/05/01 10:46:24;;;;;;;1.73;1.63;;;;;;;;;;5011129;28;20499;-71
2021/05/01 10:48:51;;;;;;;2.73;1.87;;;;;;;;;;5028100;28;20409;-72
2021/05/01 10:51:21;;;;;;;2.70;1.90;;;;;;;;;;5029827;28;20432;-72
2021/05/01 10:53:48;;;;;;;2.17;1.20;;;;;;;;;;5027749;28;20468;-72
2021/05/01 10:56:15;;;;;;;6.87;2.10;;;;;;;;;;5031464;28;20460;-70
2021/05/01 10:58:45;;;;;;;2.43;1.83;;;;;;;;;;5029598;28;20404;-72
2021/05/01 11:01:29;;;;;;;2.63;2.43;;;;;;;;;;5050102;28;20394;-73
2021/05/01 11:04:00;;;;;;;4.43;2.37;;;;;;;;;;5026095;28;20405;-71
2021/05/01 11:06:27;;;;;;;1.83;1.73;;;;;;;;;;5014862;28;20396;-70
2021/05/01 11:09:00;;;;;;;2.23;1.97;;;;;;;;;;5010008;28;20401;-72
2021/05/01 11:11:31;;;;;;;2.30;1.33;;;;;;;;;;5015303;28;20451;-71
2021/05/01 11:14:01;;;;;;;2.90;1.60;;;;;;;;;;5020029;28;20406;-72
2021/05/01 11:16:31;;;;;;;2.40;1.80;;;;;;;;;;5014706;28;20460;-72
2021/05/01 11:18:59;;;;;;;1.80;1.23;;;;;;;;;;5009755;28;20424;-73
2021/05/01 11:21:26;;;;;;;2.10;1.47;;;;;;;;;;5017190;28;20511;-72
2021/05/01 11:23:53;;;;;;;2.23;1.40;;;;;;;;;;5015390;28;20435;-71
2021/05/01 11:26:19;;;;;;;3.20;2.20;;;;;;;;;;5029564;23;20389;-71
2021/05/01 11:28:45;;;;;;;2.10;1.60;;;;;;;;;;5019310;28;20457;-69
2021/05/01 11:31:14;;;;;;;2.97;2.07;;;;;;;;;;5022639;28;20554;-70
2021/05/01 11:33:40;;;;;;;2.33;2.00;;;;;;;;;;5025403;28;20753;-70
2021/05/01 11:36:08;;;;;;;2.37;1.73;;;;;;;;;;5024429;28;20461;-70
2021/05/01 11:38:38;;;;;;;2.43;1.50;;;;;;;;;;5014509;28;20428;-71
2021/05/01 11:41:09;;;;;;;2.30;1.50;;;;;;;;;;5017048;28;20867;-73
2021/05/01 11:43:36;;;;;;;3.00;1.90;;;;;;;;;;5015388;28;20420;-70
2021/05/01 11:46:11;;;;;;;3.07;1.57;;;;;;;;;;5010877;28;20478;-68
2021/05/01 11:48:49;;;;;;;3.97;2.10;;;;;;;;;;5015854;28;20421;-70
2021/05/01 11:51:17;;;;;;;2.57;1.73;;;;;;;;;;5014726;28;20420;-70
2021/05/01 11:53:53;;;;;;;4.40;2.53;;;;;;;;;;4999367;28;20406;-68
2021/05/01 11:56:26;;;;;;;2.63;1.70;;;;;;;;;;5015646;28;20451;-71
2021/05/01 11:59:05;;;;;;;2.20;2.00;;;;;;;;;;5028430;28;21028;-69
2021/05/01 12:01:32;;;;;;;2.20;2.00;;;;;;;;;;5029351;28;20418;-70
2021/05/01 12:04:02;;;;;;;2.20;2.00;;;;;;;;;;5030878;28;20832;-69
2021/05/01 12:06:39;;;;;;;2.90;1.50;;;;;;;;;;5003746;28;20411;-69
2021/05/01 12:09:11;;;;;;;2.03;1.37;;;;;;;;;;5017618;28;20379;-72
2021/05/01 12:11:38;;;;;;;3.93;2.13;;;;;;;;;;5013940;28;20463;-68
2021/05/01 12:14:11;;;;;;;2.70;1.67;;;;;;;;;;5015534;28;20408;-69
2021/05/01 12:16:37;;;;;;;3.30;2.13;;;;;;;;;;5015804;28;20435;-70
2021/05/01 12:19:04;;;;;;;8.93;1.57;;;;;;;;;;5025240;28;20417;-71
2021/05/01 12:21:40;;;;;;;2.37;1.57;;;;;;;;;;5025134;28;20379;-70
2021/05/01 12:24:22;;;;;;;2.50;1.73;;;;;;;;;;5024054;28;20375;-72
2021/05/01 12:26:48;;;;;;;2.17;2.00;;;;;;;;;;5027150;28;20455;-71
2021/05/01 12:29:20;;;;;;;1.33;1.10;;;;;;;;;;5027871;28;20386;-71
2021/05/01 12:31:50;;;;;;;3.23;1.83;;;;;;;;;;5038102;28;20419;-70
2021/05/01 12:34:19;;;;;;;2.60;1.30;;;;;;;;;;5037793;28;20436;-70
2021/05/01 12:36:50;;;;;;;3.67;2.73;;;;;;;;;;5018089;28;20494;-71
2021/05/01 12:39:19;;;;;;;2.37;1.60;;;;;;;;;;5017008;28;20390;-72
2021/05/01 12:41:47;;;;;;;8.20;1.70;;;;;;;;;;5017273;28;20408;-71
2021/05/01 12:44:31;;;;;;;2.70;1.50;;;;;;;;;;5014911;28;20499;-69
2021/05/01 12:46:57;;;;;;;1.23;0.90;;;;;;;;;;5023529;28;20407;-70
2021/05/01 12:49:24;;;;;;;1.33;1.23;;;;;;;;;;5027616;28;20385;-69
2021/05/01 12:51:55;;;;;;;1.23;1.07;;;;;;;;;;5026537;28;20430;-71
2021/05/01 12:54:21;;;;;;;1.77;1.30;;;;;;;;;;5025437;28;20388;-70
2021/05/01 12:56:51;;;;;;;2.50;1.67;;;;;;;;;;5023968;28;20431;-69
2021/05/01 12:59:20;;;;;;;5.43;1.83;;;;;;;;;;5037299;28;20464;-71
2021/05/01 13:01:48;;;;;;;1.80;1.60;;;;;;;;;;5021567;28;20517;-70
2021/05/01 13:04:15;;;;;;;1.87;1.77;;;;;;;;;;5015563;28;20499;-69
2021/05/01 13:06:44;;;;;;;2.87;2.60;;;;;;;;;;5013495;28;20417;-71
2021/05/01 13:09:11;;;;;;;1.80;1.67;;;;;;;;;;5016359;28;20555;-70
2021/05/01 13:11:37;;;;;;;10.60;2.20;;;;;;;;;;5019366;28;20373;-69
2021/05/01 13:14:15;;;;;;;2.00;1.70;;;;;;;;;;5033186;28;20408;-72
2021/05/01 13:17:02;;;;;;;2.83;2.50;;;;;;;;;;5026783;28;20546;-70
2021/05/01 13:19:36;;;;;;;1.37;1.27;;;;;;;;;;5019055;28;20792;-72
2021/05/01 13:22:03;;;;;;;1.43;1.20;;;;;;;;;;5016147;28;20894;-69
2021/05/01 13:24:34;;;;;;;3.23;2.10;;;;;;;;;;5015104;28;20450;-70
2021/05/01 13:27:01;;;;;;;4.63;1.60;;;;;;;;;;5025032;28;20447;-71
2021/05/01 13:29:31;;;;;;;4.47;2.93;;;;;;;;;;5030848;28;20411;-71
2021/05/01 13:31:57;;;;;;;1.77;1.47;;;;;;;;;;5022012;28;20431;-71
2021/05/01 13:34:23;;;;;;;4.67;2.13;;;;;;;;;;5028655;28;20444;-71
2021/05/01 13:36:50;;;;;;;3.60;1.93;;;;;;;;;;5033612;28;20445;-71
2021/05/01 13:39:20;;;;;;;3.07;2.67;;;;;;;;;;5033696;28;20402;-71
2021/05/01 13:42:01;;;;;;;1.77;1.47;;;;;;;;;;5033820;28;20387;-69
2021/05/01 13:44:36;;;;;;;3.27;2.77;;;;;;;;;;5033460;28;20378;-71
2021/05/01 13:47:02;;;;;;;4.80;1.80;;;;;;;;;;5014091;28;20547;-70
2021/05/01 13:49:28;;;;;;;3.53;1.63;;;;;;;;;;5016086;28;20474;-70
2021/05/01 13:51:54;;;;;;;6.40;3.03;;;;;;;;;;5013416;28;20924;-71
2021/05/01 13:54:25;;;;;;;2.60;1.20;;;;;;;;;;5014801;28;20928;-70
2021/05/01 13:56:51;;;;;;;2.63;1.23;;;;;;;;;;5015734;28;20441;-71
2021/05/01 13:59:27;;;;;;;3.43;1.90;;;;;;;;;;5033734;28;20466;-72
2021/05/01 14:01:53;;;;;;;3.47;1.40;;;;;;;;;;5024119;28;20948;-69
2021/05/01 14:04:29;;;;;;;3.67;1.77;;;;;;;;;;5015604;28;20401;-69
2021/05/01 14:06:56;;;;;;;3.60;1.70;;;;;;;;;;5018681;28;20414;-71
2021/05/01 14:09:24;;;;;;;2.93;1.73;;;;;;;;;;5035650;28;20498;-70
2021/05/01 14:11:50;;;;;;;2.80;1.73;;;;;;;;;;5035058;28;20393;-71
2021/05/01 14:14:16;;;;;;;3.60;1.90;;;;;;;;;;5017045;28;20426;-71
2021/05/01 14:16:41;;;;;;;3.00;2.60;;;;;;;;;;5016996;28;20456;-70
2021/05/01 14:19:20;;;;;;;2.83;2.23;;;;;;;;;;5033525;28;20393;-69
2021/05/01 14:21:50;;;;;;;2.57;1.73;;;;;;;;;;5035000;28;20467;-68
2021/05/01 14:24:16;;;;;;;4.00;2.53;;;;;;;;;;5015241;28;20418;-70
2021/05/01 14:26:52;;;;;;;1.77;1.20;;;;;;;;;;5015302;28;20924;-71
2021/05/01 14:29:19;;;;;;;2.40;1.93;;;;;;;;;;5015878;28;20474;-70
2021/05/01 14:31:45;;;;;;;2.70;1.73;;;;;;;;;;5014915;28;20401;-71
2021/05/01 14:34:11;;;;;;;2.30;2.10;;;;;;;;;;5015534;28;20478;-72
2021/05/01 14:36:37;;;;;;;2.50;1.37;;;;;;;;;;5014990;28;20546;-71
2021/05/01 14:39:03;;;;;;;1.80;1.70;;;;;;;;;;5016764;28;20407;-71
2021/05/01 14:41:29;;;;;;;1.97;1.27;;;;;;;;;;5029554;28;20427;-72
2021/05/01 14:43:56;;;;;;;1.60;1.37;;;;;;;;;;5014632;28;20404;-69
2021/05/01 14:46:23;;;;;;;1.20;1.10;;;;;;;;;;5014998;28;20402;-69
2021/05/01 14:49:06;;;;;;;1.93;1.73;;;;;;;;;;5017338;28;20447;-69
2021/05/01 14:51:37;;;;;;;4.83;2.63;;;;;;;;;;5016669;28;20509;-68